sensor_id;sensor_type;location;lat;lon;timestamp;temperature;humidity
71291;DHT22;59073;51.994;4.448;2023-02-22T00:00:37;7.52;82.28
71291;DHT22;59073;51.994;4.448;2023-02-22T00:03:10;7.74;82.09
71291;DHT22;59073;51.994;4.448;2023-02-22T00:05:36;7.95;81.48
71291;DHT22;59073;51.994;4.448;2023-02-22T00:08:05;8.00;81.14
71291;DHT22;59073;51.994;4.448;2023-02-22T00:10:34;8.06;80.89
71291;DHT22;59073;51.994;4.448;2023-02-22T00:13:05;8.03;80.89
71291;DHT22;59073;51.994;4.448;2023-02-22T00:15:31;8.13;80.84
71291;DHT22;59073;51.994;4.448;2023-02-22T00:17:58;8.17;80.39
71291;DHT22;59073;51.994;4.448;2023-02-22T00:20:24;8.16;80.19
71291;DHT22;59073;51.994;4.448;2023-02-22T00:22:50;8.10;80.23
71291;DHT22;59073;51.994;4.448;2023-02-22T00:25:22;8.00;80.67
71291;DHT22;59073;51.994;4.448;2023-02-22T00:27:49;7.93;80.75
71291;DHT22;59073;51.994;4.448;2023-02-22T00:30:26;7.78;81.21
71291;DHT22;59073;51.994;4.448;2023-02-22T00:32:53;7.71;81.59
71291;DHT22;59073;51.994;4.448;2023-02-22T00:35:23;7.65;81.98
71291;DHT22;59073;51.994;4.448;2023-02-22T00:37:51;7.59;82.11
71291;DHT22;59073;51.994;4.448;2023-02-22T00:40:23;7.44;82.78
71291;DHT22;59073;51.994;4.448;2023-02-22T00:42:49;7.23;83.22
71291;DHT22;59073;51.994;4.448;2023-02-22T00:45:18;7.27;83.04
71291;DHT22;59073;51.994;4.448;2023-02-22T00:47:44;7.16;83.01
71291;DHT22;59073;51.994;4.448;2023-02-22T00:50:10;7.20;82.95
71291;DHT22;59073;51.994;4.448;2023-02-22T00:52:37;7.06;83.27
71291;DHT22;59073;51.994;4.448;2023-02-22T00:55:05;7.03;83.48
71291;DHT22;59073;51.994;4.448;2023-02-22T00:57:31;7.08;83.14
71291;DHT22;59073;51.994;4.448;2023-02-22T01:00:00;7.08;83.05
71291;DHT22;59073;51.994;4.448;2023-02-22T01:02:37;7.27;82.35
71291;DHT22;59073;51.994;4.448;2023-02-22T01:05:04;7.32;81.58
71291;DHT22;59073;51.994;4.448;2023-02-22T01:07:30;7.24;81.96
71291;DHT22;59073;51.994;4.448;2023-02-22T01:09:55;7.08;82.43
71291;DHT22;59073;51.994;4.448;2023-02-22T01:12:21;7.03;82.48
71291;DHT22;59073;51.994;4.448;2023-02-22T01:14:47;6.97;82.52
71291;DHT22;59073;51.994;4.448;2023-02-22T01:17:12;6.93;82.28
71291;DHT22;59073;51.994;4.448;2023-02-22T01:19:38;7.00;82.62
71291;DHT22;59073;51.994;4.448;2023-02-22T01:22:07;6.96;82.76
71291;DHT22;59073;51.994;4.448;2023-02-22T01:24:33;7.20;82.18
71291;DHT22;59073;51.994;4.448;2023-02-22T01:26:59;7.35;81.47
71291;DHT22;59073;51.994;4.448;2023-02-22T01:29:24;7.44;80.63
71291;DHT22;59073;51.994;4.448;2023-02-22T01:31:53;7.37;80.77
71291;DHT22;59073;51.994;4.448;2023-02-22T01:34:20;7.44;80.70
71291;DHT22;59073;51.994;4.448;2023-02-22T01:36:45;7.23;81.18
71291;DHT22;59073;51.994;4.448;2023-02-22T01:39:11;7.24;81.26
71291;DHT22;59073;51.994;4.448;2023-02-22T01:41:36;7.31;81.19
71291;DHT22;59073;51.994;4.448;2023-02-22T01:44:38;7.54;80.72
71291;DHT22;59073;51.994;4.448;2023-02-22T01:47:06;7.57;80.48
71291;DHT22;59073;51.994;4.448;2023-02-22T01:49:43;7.35;80.32
71291;DHT22;59073;51.994;4.448;2023-02-22T01:52:16;7.11;81.28
71291;DHT22;59073;51.994;4.448;2023-02-22T01:54:56;6.96;81.94
71291;DHT22;59073;51.994;4.448;2023-02-22T01:57:26;6.96;81.93
71291;DHT22;59073;51.994;4.448;2023-02-22T02:00:06;6.83;82.74
71291;DHT22;59073;51.994;4.448;2023-02-22T02:02:41;6.86;82.53
71291;DHT22;59073;51.994;4.448;2023-02-22T02:05:09;6.92;82.38
71291;DHT22;59073;51.994;4.448;2023-02-22T02:07:36;7.10;81.88
71291;DHT22;59073;51.994;4.448;2023-02-22T02:10:10;7.11;81.14
71291;DHT22;59073;51.994;4.448;2023-02-22T02:12:42;7.24;80.56
71291;DHT22;59073;51.994;4.448;2023-02-22T02:15:29;7.18;80.14
71291;DHT22;59073;51.994;4.448;2023-02-22T02:18:05;7.16;79.80
71291;DHT22;59073;51.994;4.448;2023-02-22T02:24:05;7.03;80.15
71291;DHT22;59073;51.994;4.448;2023-02-22T02:27:07;6.99;80.79
71291;DHT22;59073;51.994;4.448;2023-02-22T02:35:26;6.53;82.02
71291;DHT22;59073;51.994;4.448;2023-02-22T02:38:09;6.49;82.67
71291;DHT22;59073;51.994;4.448;2023-02-22T02:40:46;6.29;83.56
71291;DHT22;59073;51.994;4.448;2023-02-22T02:43:28;6.27;84.11
71291;DHT22;59073;51.994;4.448;2023-02-22T02:46:01;6.38;83.87
71291;DHT22;59073;51.994;4.448;2023-02-22T02:48:33;6.34;83.97
71291;DHT22;59073;51.994;4.448;2023-02-22T02:51:00;6.42;83.96
71291;DHT22;59073;51.994;4.448;2023-02-22T02:53:37;6.52;83.49
71291;DHT22;59073;51.994;4.448;2023-02-22T02:56:03;6.53;83.67
71291;DHT22;59073;51.994;4.448;2023-02-22T02:58:29;6.61;83.75
71291;DHT22;59073;51.994;4.448;2023-02-22T03:00:58;6.62;83.63
71291;DHT22;59073;51.994;4.448;2023-02-22T03:03:56;6.62;83.75
71291;DHT22;59073;51.994;4.448;2023-02-22T03:14:41;6.41;84.92
71291;DHT22;59073;51.994;4.448;2023-02-22T03:17:30;6.38;85.40
71291;DHT22;59073;51.994;4.448;2023-02-22T03:20:14;6.20;85.73
71291;DHT22;59073;51.994;4.448;2023-02-22T03:22:59;6.14;86.21
71291;DHT22;59073;51.994;4.448;2023-02-22T03:25:33;6.00;86.67
71291;DHT22;59073;51.994;4.448;2023-02-22T03:28:06;5.91;86.93
71291;DHT22;59073;51.994;4.448;2023-02-22T03:30:37;5.76;87.63
71291;DHT22;59073;51.994;4.448;2023-02-22T03:33:13;5.69;88.06
71291;DHT22;59073;51.994;4.448;2023-02-22T03:35:54;5.84;87.91
71291;DHT22;59073;51.994;4.448;2023-02-22T03:38:24;5.80;87.62
71291;DHT22;59073;51.994;4.448;2023-02-22T03:40:55;5.70;87.70
71291;DHT22;59073;51.994;4.448;2023-02-22T03:43:45;5.60;88.45
71291;DHT22;59073;51.994;4.448;2023-02-22T03:46:13;5.69;88.73
71291;DHT22;59073;51.994;4.448;2023-02-22T03:51:12;5.77;88.25
71291;DHT22;59073;51.994;4.448;2023-02-22T03:53:40;5.67;88.29
71291;DHT22;59073;51.994;4.448;2023-02-22T03:56:12;5.70;88.33
71291;DHT22;59073;51.994;4.448;2023-02-22T03:58:41;5.71;88.11
71291;DHT22;59073;51.994;4.448;2023-02-22T04:01:09;5.73;87.95
71291;DHT22;59073;51.994;4.448;2023-02-22T04:03:35;5.71;87.87
71291;DHT22;59073;51.994;4.448;2023-02-22T04:06:00;5.55;88.46
71291;DHT22;59073;51.994;4.448;2023-02-22T04:08:26;5.64;88.55
71291;DHT22;59073;51.994;4.448;2023-02-22T04:10:51;5.63;88.06
71291;DHT22;59073;51.994;4.448;2023-02-22T04:13:16;5.67;88.14
71291;DHT22;59073;51.994;4.448;2023-02-22T04:15:42;5.62;88.09
71291;DHT22;59073;51.994;4.448;2023-02-22T04:18:07;5.52;88.83
71291;DHT22;59073;51.994;4.448;2023-02-22T04:20:33;5.63;88.74
71291;DHT22;59073;51.994;4.448;2023-02-22T04:22:59;5.69;88.50
71291;DHT22;59073;51.994;4.448;2023-02-22T04:25:24;5.78;87.99
71291;DHT22;59073;51.994;4.448;2023-02-22T04:27:50;5.87;87.95
71291;DHT22;59073;51.994;4.448;2023-02-22T04:30:17;5.80;87.62
71291;DHT22;59073;51.994;4.448;2023-02-22T04:32:43;5.83;87.81
71291;DHT22;59073;51.994;4.448;2023-02-22T04:35:09;5.90;87.88
71291;DHT22;59073;51.994;4.448;2023-02-22T04:37:35;5.77;87.96
71291;DHT22;59073;51.994;4.448;2023-02-22T04:40:03;5.63;88.49
71291;DHT22;59073;51.994;4.448;2023-02-22T04:42:33;5.55;88.69
71291;DHT22;59073;51.994;4.448;2023-02-22T04:44:58;5.42;89.51
71291;DHT22;59073;51.994;4.448;2023-02-22T04:47:24;5.49;89.58
71291;DHT22;59073;51.994;4.448;2023-02-22T04:49:49;5.47;89.51
71291;DHT22;59073;51.994;4.448;2023-02-22T04:52:14;5.55;89.57
71291;DHT22;59073;51.994;4.448;2023-02-22T04:54:40;5.56;89.70
71291;DHT22;59073;51.994;4.448;2023-02-22T04:57:05;5.67;89.54
71291;DHT22;59073;51.994;4.448;2023-02-22T04:59:31;5.64;89.48
71291;DHT22;59073;51.994;4.448;2023-02-22T05:01:57;5.76;89.26
71291;DHT22;59073;51.994;4.448;2023-02-22T05:04:25;5.81;88.81
71291;DHT22;59073;51.994;4.448;2023-02-22T05:06:50;5.96;88.77
71291;DHT22;59073;51.994;4.448;2023-02-22T05:09:16;5.94;88.46
71291;DHT22;59073;51.994;4.448;2023-02-22T05:11:41;6.00;88.57
71291;DHT22;59073;51.994;4.448;2023-02-22T05:14:06;6.00;88.35
71291;DHT22;59073;51.994;4.448;2023-02-22T05:16:32;5.91;88.58
71291;DHT22;59073;51.994;4.448;2023-02-22T05:18:57;5.80;89.05
71291;DHT22;59073;51.994;4.448;2023-02-22T05:21:23;5.74;89.30
71291;DHT22;59073;51.994;4.448;2023-02-22T05:23:48;5.77;89.52
71291;DHT22;59073;51.994;4.448;2023-02-22T05:26:14;5.78;89.73
71291;DHT22;59073;51.994;4.448;2023-02-22T05:28:39;5.76;89.55
71291;DHT22;59073;51.994;4.448;2023-02-22T05:31:05;5.81;89.67
71291;DHT22;59073;51.994;4.448;2023-02-22T05:33:33;5.76;89.69
71291;DHT22;59073;51.994;4.448;2023-02-22T05:35:59;5.80;89.82
71291;DHT22;59073;51.994;4.448;2023-02-22T05:38:24;5.76;90.04
71291;DHT22;59073;51.994;4.448;2023-02-22T05:40:50;5.80;90.07
71291;DHT22;59073;51.994;4.448;2023-02-22T05:43:16;5.77;90.03
71291;DHT22;59073;51.994;4.448;2023-02-22T05:45:41;5.80;90.10
71291;DHT22;59073;51.994;4.448;2023-02-22T05:48:07;5.80;89.85
71291;DHT22;59073;51.994;4.448;2023-02-22T05:50:33;5.71;90.23
71291;DHT22;59073;51.994;4.448;2023-02-22T05:52:59;5.70;90.26
71291;DHT22;59073;51.994;4.448;2023-02-22T05:55:25;5.62;90.53
71291;DHT22;59073;51.994;4.448;2023-02-22T05:57:51;5.66;90.62
71291;DHT22;59073;51.994;4.448;2023-02-22T06:00:20;5.64;90.56
71291;DHT22;59073;51.994;4.448;2023-02-22T06:02:53;5.74;90.47
71291;DHT22;59073;51.994;4.448;2023-02-22T06:05:18;5.90;90.41
71291;DHT22;59073;51.994;4.448;2023-02-22T06:07:44;5.89;90.22
71291;DHT22;59073;51.994;4.448;2023-02-22T06:10:09;5.67;90.22
71291;DHT22;59073;51.994;4.448;2023-02-22T06:12:35;5.57;90.96
71291;DHT22;59073;51.994;4.448;2023-02-22T06:15:00;5.53;91.29
71291;DHT22;59073;51.994;4.448;2023-02-22T06:17:26;5.56;91.31
71291;DHT22;59073;51.994;4.448;2023-02-22T06:19:51;5.64;91.23
71291;DHT22;59073;51.994;4.448;2023-02-22T06:22:18;5.76;90.83
71291;DHT22;59073;51.994;4.448;2023-02-22T06:24:44;5.87;90.40
71291;DHT22;59073;51.994;4.448;2023-02-22T06:27:09;5.97;90.09
71291;DHT22;59073;51.994;4.448;2023-02-22T06:29:35;6.01;90.03
71291;DHT22;59073;51.994;4.448;2023-02-22T06:32:00;6.04;89.82
71291;DHT22;59073;51.994;4.448;2023-02-22T06:34:25;6.18;89.63
71291;DHT22;59073;51.994;4.448;2023-02-22T06:36:51;6.15;89.11
71291;DHT22;59073;51.994;4.448;2023-02-22T06:39:17;6.25;89.16
71291;DHT22;59073;51.994;4.448;2023-02-22T06:41:45;6.25;88.82
71291;DHT22;59073;51.994;4.448;2023-02-22T06:44:12;6.13;89.03
71291;DHT22;59073;51.994;4.448;2023-02-22T06:46:37;5.97;90.11
71291;DHT22;59073;51.994;4.448;2023-02-22T06:49:04;5.96;89.95
71291;DHT22;59073;51.994;4.448;2023-02-22T06:51:35;5.98;90.15
71291;DHT22;59073;51.994;4.448;2023-02-22T06:54:01;6.11;89.81
71291;DHT22;59073;51.994;4.448;2023-02-22T06:56:28;6.07;90.10
71291;DHT22;59073;51.994;4.448;2023-02-22T06:58:55;6.31;89.74
71291;DHT22;59073;51.994;4.448;2023-02-22T07:01:21;6.42;88.63
71291;DHT22;59073;51.994;4.448;2023-02-22T07:03:48;6.29;89.04
71291;DHT22;59073;51.994;4.448;2023-02-22T07:06:14;6.35;88.40
71291;DHT22;59073;51.994;4.448;2023-02-22T07:08:39;6.14;88.85
71291;DHT22;59073;51.994;4.448;2023-02-22T07:11:05;5.96;89.83
71291;DHT22;59073;51.994;4.448;2023-02-22T07:13:30;6.07;89.60
71291;DHT22;59073;51.994;4.448;2023-02-22T07:15:56;6.07;89.03
71291;DHT22;59073;51.994;4.448;2023-02-22T07:18:21;5.94;89.71
71291;DHT22;59073;51.994;4.448;2023-02-22T07:20:49;5.93;89.56
71291;DHT22;59073;51.994;4.448;2023-02-22T07:23:15;6.03;89.60
71291;DHT22;59073;51.994;4.448;2023-02-22T07:25:41;6.13;89.08
71291;DHT22;59073;51.994;4.448;2023-02-22T07:30:42;6.62;91.37
71291;DHT22;59073;51.994;4.448;2023-02-22T07:33:10;7.08;88.88
71291;DHT22;59073;51.994;4.448;2023-02-22T07:35:41;7.08;87.21
71291;DHT22;59073;51.994;4.448;2023-02-22T07:38:07;6.64;86.24
71291;DHT22;59073;51.994;4.448;2023-02-22T07:40:33;6.42;86.88
71291;DHT22;59073;51.994;4.448;2023-02-22T07:43:12;6.44;87.21
71291;DHT22;59073;51.994;4.448;2023-02-22T07:45:38;6.45;87.27
71291;DHT22;59073;51.994;4.448;2023-02-22T07:48:05;6.46;87.26
71291;DHT22;59073;51.994;4.448;2023-02-22T07:50:32;6.41;87.42
71291;DHT22;59073;51.994;4.448;2023-02-22T07:53:03;6.46;87.47
71291;DHT22;59073;51.994;4.448;2023-02-22T07:55:30;6.42;87.51
71291;DHT22;59073;51.994;4.448;2023-02-22T07:58:01;6.44;87.50
71291;DHT22;59073;51.994;4.448;2023-02-22T08:00:33;6.50;87.53
71291;DHT22;59073;51.994;4.448;2023-02-22T08:03:01;6.34;88.13
71291;DHT22;59073;51.994;4.448;2023-02-22T08:05:29;6.34;87.98
71291;DHT22;59073;51.994;4.448;2023-02-22T08:07:55;6.34;88.03
71291;DHT22;59073;51.994;4.448;2023-02-22T08:10:22;6.18;88.66
71291;DHT22;59073;51.994;4.448;2023-02-22T08:12:48;6.31;88.76
71291;DHT22;59073;51.994;4.448;2023-02-22T08:15:17;6.31;88.33
71291;DHT22;59073;51.994;4.448;2023-02-22T08:17:43;6.29;88.06
71291;DHT22;59073;51.994;4.448;2023-02-22T08:20:09;6.22;88.34
71291;DHT22;59073;51.994;4.448;2023-02-22T08:22:34;6.25;88.47
71291;DHT22;59073;51.994;4.448;2023-02-22T08:24:59;6.18;88.80
71291;DHT22;59073;51.994;4.448;2023-02-22T08:27:29;6.34;88.58
71291;DHT22;59073;51.994;4.448;2023-02-22T08:29:55;6.45;88.31
71291;DHT22;59073;51.994;4.448;2023-02-22T08:32:21;6.65;87.61
71291;DHT22;59073;51.994;4.448;2023-02-22T08:34:46;6.62;87.66
71291;DHT22;59073;51.994;4.448;2023-02-22T08:37:14;6.58;87.54
71291;DHT22;59073;51.994;4.448;2023-02-22T08:39:39;6.48;87.57
71291;DHT22;59073;51.994;4.448;2023-02-22T08:42:05;6.68;87.38
71291;DHT22;59073;51.994;4.448;2023-02-22T08:44:30;6.59;87.50
71291;DHT22;59073;51.994;4.448;2023-02-22T08:46:56;6.82;87.31
71291;DHT22;59073;51.994;4.448;2023-02-22T08:49:22;6.76;87.08
71291;DHT22;59073;51.994;4.448;2023-02-22T08:51:48;6.80;87.01
71291;DHT22;59073;51.994;4.448;2023-02-22T08:54:13;6.85;86.79
71291;DHT22;59073;51.994;4.448;2023-02-22T08:56:38;6.93;86.56
71291;DHT22;59073;51.994;4.448;2023-02-22T08:59:04;6.79;87.24
71291;DHT22;59073;51.994;4.448;2023-02-22T09:01:29;6.65;87.40
71291;DHT22;59073;51.994;4.448;2023-02-22T09:03:57;6.73;86.81
71291;DHT22;59073;51.994;4.448;2023-02-22T09:06:22;7.08;86.07
71291;DHT22;59073;51.994;4.448;2023-02-22T09:08:48;7.52;85.56
71291;DHT22;59073;51.994;4.448;2023-02-22T09:11:13;7.37;84.41
71291;DHT22;59073;51.994;4.448;2023-02-22T09:13:39;7.34;85.24
71291;DHT22;59073;51.994;4.448;2023-02-22T09:16:04;7.37;85.54
71291;DHT22;59073;51.994;4.448;2023-02-22T09:18:30;7.38;84.83
71291;DHT22;59073;51.994;4.448;2023-02-22T09:20:56;7.47;84.72
71291;DHT22;59073;51.994;4.448;2023-02-22T09:23:22;7.55;84.00
71291;DHT22;59073;51.994;4.448;2023-02-22T09:25:48;7.71;83.35
71291;DHT22;59073;51.994;4.448;2023-02-22T09:28:14;7.86;82.57
71291;DHT22;59073;51.994;4.448;2023-02-22T09:30:41;7.78;82.73
71291;DHT22;59073;51.994;4.448;2023-02-22T09:33:10;7.79;83.05
71291;DHT22;59073;51.994;4.448;2023-02-22T09:35:36;8.03;82.51
71291;DHT22;59073;51.994;4.448;2023-02-22T09:38:07;8.22;81.88
71291;DHT22;59073;51.994;4.448;2023-02-22T09:40:35;8.54;81.48
71291;DHT22;59073;51.994;4.448;2023-02-22T09:43:36;8.64;79.93
71291;DHT22;59073;51.994;4.448;2023-02-22T09:46:20;8.41;79.98
71291;DHT22;59073;51.994;4.448;2023-02-22T09:51:44;8.10;81.03
71291;DHT22;59073;51.994;4.448;2023-02-22T09:57:01;7.61;83.13
71291;DHT22;59073;51.994;4.448;2023-02-22T09:59:33;7.67;83.58
71291;DHT22;59073;51.994;4.448;2023-02-22T10:02:10;7.69;83.19
71291;DHT22;59073;51.994;4.448;2023-02-22T10:04:53;7.98;81.99
71291;DHT22;59073;51.994;4.448;2023-02-22T10:07:32;8.17;81.83
71291;DHT22;59073;51.994;4.448;2023-02-22T10:09:59;8.41;81.80
71291;DHT22;59073;51.994;4.448;2023-02-22T10:12:52;8.57;81.71
71291;DHT22;59073;51.994;4.448;2023-02-22T10:20:53;8.74;80.41
71291;DHT22;59073;51.994;4.448;2023-02-22T10:26:27;8.99;79.84
71291;DHT22;59073;51.994;4.448;2023-02-22T10:31:52;9.07;78.84
71291;DHT22;59073;51.994;4.448;2023-02-22T10:34:24;9.22;78.92
71291;DHT22;59073;51.994;4.448;2023-02-22T10:37:00;9.19;78.32
71291;DHT22;59073;51.994;4.448;2023-02-22T10:39:33;9.20;77.97
71291;DHT22;59073;51.994;4.448;2023-02-22T10:42:03;9.47;77.65
71291;DHT22;59073;51.994;4.448;2023-02-22T10:44:33;9.74;76.87
71291;DHT22;59073;51.994;4.448;2023-02-22T10:47:03;9.63;76.93
71291;DHT22;59073;51.994;4.448;2023-02-22T10:49:38;9.70;75.92
71291;DHT22;59073;51.994;4.448;2023-02-22T10:52:13;9.66;76.45
71291;DHT22;59073;51.994;4.448;2023-02-22T10:54:45;9.77;76.32
71291;DHT22;59073;51.994;4.448;2023-02-22T10:57:12;9.86;75.99
71291;DHT22;59073;51.994;4.448;2023-02-22T10:59:40;9.84;75.93
71291;DHT22;59073;51.994;4.448;2023-02-22T11:02:28;10.04;75.64
71291;DHT22;59073;51.994;4.448;2023-02-22T11:04:56;10.18;74.38
71291;DHT22;59073;51.994;4.448;2023-02-22T11:07:28;10.44;73.90
71291;DHT22;59073;51.994;4.448;2023-02-22T11:10:05;10.58;73.97
71291;DHT22;59073;51.994;4.448;2023-02-22T11:12:40;10.50;73.70
71291;DHT22;59073;51.994;4.448;2023-02-22T11:17:49;10.58;73.50
71291;DHT22;59073;51.994;4.448;2023-02-22T11:20:25;10.79;72.82
71291;DHT22;59073;51.994;4.448;2023-02-22T11:22:54;10.82;73.00
71291;DHT22;59073;51.994;4.448;2023-02-22T11:25:27;10.86;72.55
71291;DHT22;59073;51.994;4.448;2023-02-22T11:27:54;10.83;72.86
71291;DHT22;59073;51.994;4.448;2023-02-22T11:30:28;11.03;72.47
71291;DHT22;59073;51.994;4.448;2023-02-22T11:32:58;10.96;71.73
71291;DHT22;59073;51.994;4.448;2023-02-22T11:38:09;10.92;71.92
71291;DHT22;59073;51.994;4.448;2023-02-22T11:40:35;11.03;72.48
71291;DHT22;59073;51.994;4.448;2023-02-22T11:43:18;10.92;72.44
71291;DHT22;59073;51.994;4.448;2023-02-22T11:48:32;10.96;72.41
71291;DHT22;59073;51.994;4.448;2023-02-22T11:51:13;10.99;72.40
71291;DHT22;59073;51.994;4.448;2023-02-22T12:01:56;11.31;71.76
71291;DHT22;59073;51.994;4.448;2023-02-22T12:07:35;11.35;71.05
71291;DHT22;59073;51.994;4.448;2023-02-22T12:10:23;11.21;71.05
71291;DHT22;59073;51.994;4.448;2023-02-22T12:13:11;11.31;72.13
71291;DHT22;59073;51.994;4.448;2023-02-22T12:15:43;11.37;70.81
71291;DHT22;59073;51.994;4.448;2023-02-22T12:21:15;11.34;71.29
71291;DHT22;59073;51.994;4.448;2023-02-22T12:23:46;11.40;71.40
71291;DHT22;59073;51.994;4.448;2023-02-22T12:26:23;11.41;71.06
71291;DHT22;59073;51.994;4.448;2023-02-22T12:31:28;11.48;71.65
71291;DHT22;59073;51.994;4.448;2023-02-22T12:36:48;11.78;71.10
71291;DHT22;59073;51.994;4.448;2023-02-22T12:39:41;11.86;71.53
71291;DHT22;59073;51.994;4.448;2023-02-22T12:42:21;11.88;71.00
71291;DHT22;59073;51.994;4.448;2023-02-22T12:44:58;11.91;70.04
71291;DHT22;59073;51.994;4.448;2023-02-22T12:47:40;11.77;70.66
71291;DHT22;59073;51.994;4.448;2023-02-22T12:50:19;11.67;70.89
71291;DHT22;59073;51.994;4.448;2023-02-22T12:52:46;11.72;71.07
71291;DHT22;59073;51.994;4.448;2023-02-22T12:57:55;11.82;70.97
71291;DHT22;59073;51.994;4.448;2023-02-22T13:00:33;11.74;70.88
71291;DHT22;59073;51.994;4.448;2023-02-22T13:05:35;11.78;71.17
71291;DHT22;59073;51.994;4.448;2023-02-22T13:19:02;12.02;70.80
71291;DHT22;59073;51.994;4.448;2023-02-22T13:21:52;11.99;70.85
71291;DHT22;59073;51.994;4.448;2023-02-22T13:24:48;12.03;71.15
71291;DHT22;59073;51.994;4.448;2023-02-22T13:27:34;12.05;71.15
71291;DHT22;59073;51.994;4.448;2023-02-22T13:30:03;12.02;70.81
71291;DHT22;59073;51.994;4.448;2023-02-22T13:32:59;11.86;71.27
71291;DHT22;59073;51.994;4.448;2023-02-22T13:38:46;12.13;71.19
71291;DHT22;59073;51.994;4.448;2023-02-22T13:52:30;11.95;71.53
71291;DHT22;59073;51.994;4.448;2023-02-22T13:55:00;11.79;71.93
71291;DHT22;59073;51.994;4.448;2023-02-22T13:57:32;11.74;72.28
71291;DHT22;59073;51.994;4.448;2023-02-22T14:02:59;11.71;72.28
71291;DHT22;59073;51.994;4.448;2023-02-22T14:10:54;11.99;71.82
71291;DHT22;59073;51.994;4.448;2023-02-22T14:16:19;11.82;72.93
71291;DHT22;59073;51.994;4.448;2023-02-22T14:19:00;11.89;72.87
71291;DHT22;59073;51.994;4.448;2023-02-22T14:21:27;11.91;73.03
71291;DHT22;59073;51.994;4.448;2023-02-22T14:23:55;11.95;72.72
71291;DHT22;59073;51.994;4.448;2023-02-22T14:26:34;11.83;72.91
71291;DHT22;59073;51.994;4.448;2023-02-22T14:34:21;11.99;73.25
71291;DHT22;59073;51.994;4.448;2023-02-22T14:39:45;11.96;73.19
71291;DHT22;59073;51.994;4.448;2023-02-22T14:42:42;11.93;73.57
71291;DHT22;59073;51.994;4.448;2023-02-22T14:47:42;12.09;73.35
71291;DHT22;59073;51.994;4.448;2023-02-22T14:50:21;12.09;73.11
71291;DHT22;59073;51.994;4.448;2023-02-22T14:52:59;12.05;73.03
71291;DHT22;59073;51.994;4.448;2023-02-22T14:55:29;11.98;73.22
71291;DHT22;59073;51.994;4.448;2023-02-22T14:58:06;11.88;73.77
71291;DHT22;59073;51.994;4.448;2023-02-22T15:00:41;11.83;73.74
71291;DHT22;59073;51.994;4.448;2023-02-22T15:03:31;11.62;74.66
71291;DHT22;59073;51.994;4.448;2023-02-22T15:08:44;11.69;74.54
71291;DHT22;59073;51.994;4.448;2023-02-22T15:11:26;11.71;74.92
71291;DHT22;59073;51.994;4.448;2023-02-22T15:13:58;11.75;74.92
71291;DHT22;59073;51.994;4.448;2023-02-22T15:16:31;11.69;74.89
71291;DHT22;59073;51.994;4.448;2023-02-22T15:18:59;11.68;75.23
71291;DHT22;59073;51.994;4.448;2023-02-22T15:21:29;11.69;75.13
71291;DHT22;59073;51.994;4.448;2023-02-22T15:24:04;11.72;75.13
71291;DHT22;59073;51.994;4.448;2023-02-22T15:26:37;11.71;75.52
71291;DHT22;59073;51.994;4.448;2023-02-22T15:29:18;11.83;75.57
71291;DHT22;59073;51.994;4.448;2023-02-22T15:31:44;11.79;75.22
71291;DHT22;59073;51.994;4.448;2023-02-22T15:36:44;11.71;75.19
71291;DHT22;59073;51.994;4.448;2023-02-22T15:39:29;11.61;75.51
71291;DHT22;59073;51.994;4.448;2023-02-22T15:44:26;11.38;76.37
71291;DHT22;59073;51.994;4.448;2023-02-22T15:46:53;11.32;76.51
71291;DHT22;59073;51.994;4.448;2023-02-22T15:49:22;11.30;76.81
71291;DHT22;59073;51.994;4.448;2023-02-22T15:52:02;11.26;77.05
71291;DHT22;59073;51.994;4.448;2023-02-22T15:54:29;11.20;77.14
71291;DHT22;59073;51.994;4.448;2023-02-22T15:57:00;11.04;77.80
71291;DHT22;59073;51.994;4.448;2023-02-22T15:59:26;10.99;78.24
71291;DHT22;59073;51.994;4.448;2023-02-22T16:01:58;11.00;78.18
71291;DHT22;59073;51.994;4.448;2023-02-22T16:04:29;10.96;78.52
71291;DHT22;59073;51.994;4.448;2023-02-22T16:07:05;10.90;78.52
71291;DHT22;59073;51.994;4.448;2023-02-22T16:09:33;10.82;78.75
71291;DHT22;59073;51.994;4.448;2023-02-22T16:14:44;10.75;79.47
71291;DHT22;59073;51.994;4.448;2023-02-22T16:17:34;10.83;79.24
71291;DHT22;59073;51.994;4.448;2023-02-22T16:22:39;10.93;78.87
71291;DHT22;59073;51.994;4.448;2023-02-22T16:27:56;10.86;78.94
71291;DHT22;59073;51.994;4.448;2023-02-22T16:30:33;10.75;79.14
71291;DHT22;59073;51.994;4.448;2023-02-22T16:33:03;10.69;79.36
71291;DHT22;59073;51.994;4.448;2023-02-22T16:35:30;10.66;79.28
71291;DHT22;59073;51.994;4.448;2023-02-22T16:38:07;10.70;79.28
71291;DHT22;59073;51.994;4.448;2023-02-22T16:40:46;10.79;78.95
71291;DHT22;59073;51.994;4.448;2023-02-22T16:43:19;10.92;78.34
71291;DHT22;59073;51.994;4.448;2023-02-22T16:45:45;10.92;78.19
71291;DHT22;59073;51.994;4.448;2023-02-22T16:48:22;10.90;78.28
71291;DHT22;59073;51.994;4.448;2023-02-22T16:50:50;10.89;78.06
71291;DHT22;59073;51.994;4.448;2023-02-22T16:53:18;10.83;78.17
71291;DHT22;59073;51.994;4.448;2023-02-22T16:55:48;10.77;78.55
71291;DHT22;59073;51.994;4.448;2023-02-22T16:58:16;10.77;78.13
71291;DHT22;59073;51.994;4.448;2023-02-22T17:00:43;10.75;78.54
71291;DHT22;59073;51.994;4.448;2023-02-22T17:03:13;10.75;78.50
71291;DHT22;59073;51.994;4.448;2023-02-22T17:05:39;10.75;78.68
71291;DHT22;59073;51.994;4.448;2023-02-22T17:08:05;10.69;79.08
71291;DHT22;59073;51.994;4.448;2023-02-22T17:10:31;10.70;79.19
71291;DHT22;59073;51.994;4.448;2023-02-22T17:12:58;10.65;79.24
71291;DHT22;59073;51.994;4.448;2023-02-22T17:15:30;10.66;79.42
71291;DHT22;59073;51.994;4.448;2023-02-22T17:18:02;10.72;79.21
71291;DHT22;59073;51.994;4.448;2023-02-22T17:20:34;10.69;79.31
71291;DHT22;59073;51.994;4.448;2023-02-22T17:23:03;10.70;79.41
71291;DHT22;59073;51.994;4.448;2023-02-22T17:25:36;10.70;79.49
71291;DHT22;59073;51.994;4.448;2023-02-22T17:28:03;10.73;79.30
71291;DHT22;59073;51.994;4.448;2023-02-22T17:30:29;10.75;79.40
71291;DHT22;59073;51.994;4.448;2023-02-22T17:32:58;10.75;79.46
71291;DHT22;59073;51.994;4.448;2023-02-22T17:35:30;10.77;79.47
71291;DHT22;59073;51.994;4.448;2023-02-22T17:37:57;10.83;79.17
71291;DHT22;59073;51.994;4.448;2023-02-22T17:40:24;10.84;79.07
71291;DHT22;59073;51.994;4.448;2023-02-22T17:42:51;10.84;78.89
71291;DHT22;59073;51.994;4.448;2023-02-22T17:45:21;10.86;78.83
71291;DHT22;59073;51.994;4.448;2023-02-22T17:47:49;10.84;78.82
71291;DHT22;59073;51.994;4.448;2023-02-22T17:50:15;10.86;78.58
71291;DHT22;59073;51.994;4.448;2023-02-22T17:52:42;10.83;78.69
71291;DHT22;59073;51.994;4.448;2023-02-22T17:55:08;10.80;78.76
71291;DHT22;59073;51.994;4.448;2023-02-22T17:57:34;10.72;78.63
71291;DHT22;59073;51.994;4.448;2023-02-22T18:00:02;10.66;78.68
71291;DHT22;59073;51.994;4.448;2023-02-22T18:02:38;10.52;78.87
71291;DHT22;59073;51.994;4.448;2023-02-22T18:05:03;10.55;79.15
71291;DHT22;59073;51.994;4.448;2023-02-22T18:07:29;10.58;79.05
71291;DHT22;59073;51.994;4.448;2023-02-22T18:09:56;10.49;79.28
71291;DHT22;59073;51.994;4.448;2023-02-22T18:12:22;10.42;79.27
71291;DHT22;59073;51.994;4.448;2023-02-22T18:14:47;10.44;79.37